sensor_id;sensor_type;location;lat;lon;timestamp;P1;durP1;ratioP1;P2;durP2;ratioP2
16426;SDS011;8322;-33.900;151.170;2023-05-29T00:00:44;6.75;;;2.00;;
16426;SDS011;8322;-33.900;151.170;2023-05-29T00:03:13;4.78;;;2.10;;
16426;SDS011;8322;-33.900;151.170;2023-05-29T00:05:43;4.93;;;2.35;;
16426;SDS011;8322;-33.900;151.170;2023-05-29T00:08:13;4.05;;;1.80;;
16426;SDS011;8322;-33.900;151.170;2023-05-29T00:10:44;4.57;;;1.63;;
16426;SDS011;8322;-33.900;151.170;2023-05-29T00:13:13;2.03;;;1.20;;
16426;SDS011;8322;-33.900;151.170;2023-05-29T00:15:45;3.05;;;1.40;;
16426;SDS011;8322;-33.900;151.170;2023-05-29T00:18:15;2.38;;;1.15;;
16426;SDS011;8322;-33.900;151.170;2023-05-29T00:20:44;3.00;;;1.10;;
16426;SDS011;8322;-33.900;151.170;2023-05-29T00:23:14;2.30;;;1.20;;
16426;SDS011;8322;-33.900;151.170;2023-05-29T00:25:45;3.08;;;1.40;;
16426;SDS011;8322;-33.900;151.170;2023-05-29T00:28:15;2.50;;;1.10;;
16426;SDS011;8322;-33.900;151.170;2023-05-29T00:30:44;7.20;;;4.40;;
16426;SDS011;8322;-33.900;151.170;2023-05-29T00:33:14;6.90;;;2.65;;
16426;SDS011;8322;-33.900;151.170;2023-05-29T00:35:44;4.25;;;2.53;;
16426;SDS011;8322;-33.900;151.170;2023-05-29T00:38:14;3.10;;;1.80;;
16426;SDS011;8322;-33.900;151.170;2023-05-29T00:40:45;2.20;;;1.10;;
16426;SDS011;8322;-33.900;151.170;2023-05-29T00:43:14;2.45;;;1.10;;
16426;SDS011;8322;-33.900;151.170;2023-05-29T00:45:47;2.03;;;0.90;;
16426;SDS011;8322;-33.900;151.170;2023-05-29T00:48:16;2.10;;;0.77;;
16426;SDS011;8322;-33.900;151.170;2023-05-29T00:50:46;2.83;;;0.95;;
16426;SDS011;8322;-33.900;151.170;2023-05-29T00:53:15;3.53;;;1.00;;
16426;SDS011;8322;-33.900;151.170;2023-05-29T00:55:47;1.83;;;0.70;;
16426;SDS011;8322;-33.900;151.170;2023-05-29T00:58:17;4.30;;;0.90;;
16426;SDS011;8322;-33.900;151.170;2023-05-29T01:00:46;1.65;;;0.80;;
16426;SDS011;8322;-33.900;151.170;2023-05-29T01:03:16;3.63;;;0.80;;
16426;SDS011;8322;-33.900;151.170;2023-05-29T01:05:46;1.52;;;0.70;;
16426;SDS011;8322;-33.900;151.170;2023-05-29T01:08:15;1.25;;;0.80;;
16426;SDS011;8322;-33.900;151.170;2023-05-29T01:10:45;1.17;;;0.80;;
16426;SDS011;8322;-33.900;151.170;2023-05-29T01:13:17;2.47;;;0.70;;
16426;SDS011;8322;-33.900;151.170;2023-05-29T01:15:49;4.00;;;0.90;;
16426;SDS011;8322;-33.900;151.170;2023-05-29T01:18:23;2.78;;;0.70;;
16426;SDS011;8322;-33.900;151.170;2023-05-29T01:20:59;1.92;;;0.80;;
16426;SDS011;8322;-33.900;151.170;2023-05-29T01:26:49;2.25;;;0.93;;
16426;SDS011;8322;-33.900;151.170;2023-05-29T01:29:20;1.55;;;0.60;;
16426;SDS011;8322;-33.900;151.170;2023-05-29T01:31:51;0.50;;;0.50;;
16426;SDS011;8322;-33.900;151.170;2023-05-29T01:34:20;0.80;;;0.60;;
16426;SDS011;8322;-33.900;151.170;2023-05-29T01:36:50;1.50;;;0.60;;
16426;SDS011;8322;-33.900;151.170;2023-05-29T01:39:19;1.10;;;0.60;;
16426;SDS011;8322;-33.900;151.170;2023-05-29T01:41:51;1.48;;;0.65;;
16426;SDS011;8322;-33.900;151.170;2023-05-29T01:44:20;0.65;;;0.60;;
16426;SDS011;8322;-33.900;151.170;2023-05-29T01:46:51;1.65;;;0.77;;
16426;SDS011;8322;-33.900;151.170;2023-05-29T01:49:21;3.45;;;1.10;;
16426;SDS011;8322;-33.900;151.170;2023-05-29T01:51:52;1.83;;;0.77;;
16426;SDS011;8322;-33.900;151.170;2023-05-29T01:54:22;1.88;;;0.85;;
16426;SDS011;8322;-33.900;151.170;2023-05-29T01:56:53;2.90;;;0.98;;
16426;SDS011;8322;-33.900;151.170;2023-05-29T01:59:23;1.38;;;0.98;;
16426;SDS011;8322;-33.900;151.170;2023-05-29T02:01:54;2.80;;;0.80;;
16426;SDS011;8322;-33.900;151.170;2023-05-29T02:04:23;2.05;;;0.60;;
16426;SDS011;8322;-33.900;151.170;2023-05-29T02:06:53;1.77;;;0.90;;
16426;SDS011;8322;-33.900;151.170;2023-05-29T02:09:22;1.13;;;0.60;;
16426;SDS011;8322;-33.900;151.170;2023-05-29T02:11:53;1.95;;;0.60;;
16426;SDS011;8322;-33.900;151.170;2023-05-29T02:14:23;1.17;;;0.60;;
16426;SDS011;8322;-33.900;151.170;2023-05-29T02:16:52;1.05;;;0.40;;
16426;SDS011;8322;-33.900;151.170;2023-05-29T02:19:23;0.52;;;0.43;;
16426;SDS011;8322;-33.900;151.170;2023-05-29T02:21:53;0.52;;;0.40;;
16426;SDS011;8322;-33.900;151.170;2023-05-29T02:24:22;1.23;;;0.70;;
16426;SDS011;8322;-33.900;151.170;2023-05-29T02:26:54;2.78;;;1.30;;
16426;SDS011;8322;-33.900;151.170;2023-05-29T02:29:23;3.53;;;1.90;;
16426;SDS011;8322;-33.900;151.170;2023-05-29T02:31:53;1.88;;;1.25;;
16426;SDS011;8322;-33.900;151.170;2023-05-29T02:34:22;2.08;;;0.70;;
16426;SDS011;8322;-33.900;151.170;2023-05-29T02:36:52;0.68;;;0.68;;
16426;SDS011;8322;-33.900;151.170;2023-05-29T02:39:25;1.05;;;0.80;;
16426;SDS011;8322;-33.900;151.170;2023-05-29T02:41:56;1.85;;;1.05;;
16426;SDS011;8322;-33.900;151.170;2023-05-29T02:44:25;1.13;;;0.80;;
16426;SDS011;8322;-33.900;151.170;2023-05-29T02:46:55;1.65;;;0.65;;
16426;SDS011;8322;-33.900;151.170;2023-05-29T02:49:24;1.50;;;0.82;;
16426;SDS011;8322;-33.900;151.170;2023-05-29T02:51:54;1.25;;;0.60;;
16426;SDS011;8322;-33.900;151.170;2023-05-29T02:54:23;0.82;;;0.50;;
16426;SDS011;8322;-33.900;151.170;2023-05-29T02:56:53;1.40;;;0.63;;
16426;SDS011;8322;-33.900;151.170;2023-05-29T02:59:24;3.35;;;1.85;;
16426;SDS011;8322;-33.900;151.170;2023-05-29T03:01:54;0.60;;;0.60;;
16426;SDS011;8322;-33.900;151.170;2023-05-29T03:04:23;0.85;;;0.50;;
16426;SDS011;8322;-33.900;151.170;2023-05-29T03:06:53;1.10;;;0.90;;
16426;SDS011;8322;-33.900;151.170;2023-05-29T03:09:22;3.53;;;0.70;;
16426;SDS011;8322;-33.900;151.170;2023-05-29T03:11:52;0.98;;;0.60;;
16426;SDS011;8322;-33.900;151.170;2023-05-29T03:14:21;0.45;;;0.45;;
16426;SDS011;8322;-33.900;151.170;2023-05-29T03:16:52;1.55;;;0.50;;
16426;SDS011;8322;-33.900;151.170;2023-05-29T03:19:22;0.45;;;0.40;;
16426;SDS011;8322;-33.900;151.170;2023-05-29T03:21:51;0.50;;;0.50;;
16426;SDS011;8322;-33.900;151.170;2023-05-29T03:24:21;0.85;;;0.40;;
16426;SDS011;8322;-33.900;151.170;2023-05-29T03:26:51;1.00;;;0.40;;
16426;SDS011;8322;-33.900;151.170;2023-05-29T03:29:20;2.50;;;0.90;;
16426;SDS011;8322;-33.900;151.170;2023-05-29T03:31:52;0.85;;;0.85;;
16426;SDS011;8322;-33.900;151.170;2023-05-29T03:34:21;2.00;;;0.50;;
16426;SDS011;8322;-33.900;151.170;2023-05-29T03:36:51;0.40;;;0.40;;
16426;SDS011;8322;-33.900;151.170;2023-05-29T03:39:20;2.50;;;0.40;;
16426;SDS011;8322;-33.900;151.170;2023-05-29T03:41:50;0.55;;;0.50;;
16426;SDS011;8322;-33.900;151.170;2023-05-29T03:44:19;2.10;;;0.40;;
16426;SDS011;8322;-33.900;151.170;2023-05-29T03:46:49;0.50;;;0.30;;
16426;SDS011;8322;-33.900;151.170;2023-05-29T03:49:20;1.13;;;0.60;;
16426;SDS011;8322;-33.900;151.170;2023-05-29T03:51:50;0.60;;;0.40;;
16426;SDS011;8322;-33.900;151.170;2023-05-29T03:54:19;1.88;;;0.50;;
16426;SDS011;8322;-33.900;151.170;2023-05-29T03:56:49;2.15;;;0.40;;
16426;SDS011;8322;-33.900;151.170;2023-05-29T03:59:18;0.38;;;0.35;;
16426;SDS011;8322;-33.900;151.170;2023-05-29T04:01:48;0.30;;;0.30;;
16426;SDS011;8322;-33.900;151.170;2023-05-29T04:04:17;0.45;;;0.30;;
16426;SDS011;8322;-33.900;151.170;2023-05-29T04:06:48;0.30;;;0.30;;
16426;SDS011;8322;-33.900;151.170;2023-05-29T04:09:18;0.32;;;0.32;;
16426;SDS011;8322;-33.900;151.170;2023-05-29T04:11:47;0.90;;;0.35;;
16426;SDS011;8322;-33.900;151.170;2023-05-29T04:14:17;0.68;;;0.50;;
16426;SDS011;8322;-33.900;151.170;2023-05-29T04:16:47;4.30;;;1.17;;
16426;SDS011;8322;-33.900;151.170;2023-05-29T04:19:16;0.90;;;0.47;;
16426;SDS011;8322;-33.900;151.170;2023-05-29T04:21:48;0.77;;;0.40;;
16426;SDS011;8322;-33.900;151.170;2023-05-29T04:24:18;0.55;;;0.40;;
16426;SDS011;8322;-33.900;151.170;2023-05-29T04:26:47;1.60;;;0.60;;
16426;SDS011;8322;-33.900;151.170;2023-05-29T04:29:20;0.60;;;0.60;;
16426;SDS011;8322;-33.900;151.170;2023-05-29T04:31:56;1.50;;;0.50;;
16426;SDS011;8322;-33.900;151.170;2023-05-29T04:34:29;0.40;;;0.40;;
16426;SDS011;8322;-33.900;151.170;2023-05-29T04:37:03;0.60;;;0.50;;
16426;SDS011;8322;-33.900;151.170;2023-05-29T04:39:32;0.40;;;0.40;;
16426;SDS011;8322;-33.900;151.170;2023-05-29T04:42:02;0.40;;;0.40;;
16426;SDS011;8322;-33.900;151.170;2023-05-29T04:44:32;0.98;;;0.63;;
16426;SDS011;8322;-33.900;151.170;2023-05-29T04:47:01;1.00;;;0.80;;
16426;SDS011;8322;-33.900;151.170;2023-05-29T04:49:32;0.65;;;0.63;;
16426;SDS011;8322;-33.900;151.170;2023-05-29T04:52:03;0.52;;;0.52;;
16426;SDS011;8322;-33.900;151.170;2023-05-29T04:54:33;0.75;;;0.75;;
16426;SDS011;8322;-33.900;151.170;2023-05-29T04:57:03;2.47;;;0.60;;
16426;SDS011;8322;-33.900;151.170;2023-05-29T04:59:33;0.60;;;0.50;;
16426;SDS011;8322;-33.900;151.170;2023-05-29T05:02:02;0.40;;;0.40;;
16426;SDS011;8322;-33.900;151.170;2023-05-29T05:04:32;0.80;;;0.60;;
16426;SDS011;8322;-33.900;151.170;2023-05-29T05:07:04;0.55;;;0.55;;
16426;SDS011;8322;-33.900;151.170;2023-05-29T05:09:34;2.90;;;1.08;;
16426;SDS011;8322;-33.900;151.170;2023-05-29T05:12:03;2.05;;;0.75;;
16426;SDS011;8322;-33.900;151.170;2023-05-29T05:14:33;1.83;;;0.80;;
16426;SDS011;8322;-33.900;151.170;2023-05-29T05:17:03;1.60;;;0.70;;
16426;SDS011;8322;-33.900;151.170;2023-05-29T05:19:32;1.08;;;0.60;;
16426;SDS011;8322;-33.900;151.170;2023-05-29T05:22:04;2.75;;;0.60;;
16426;SDS011;8322;-33.900;151.170;2023-05-29T05:24:33;1.08;;;0.50;;
16426;SDS011;8322;-33.900;151.170;2023-05-29T05:27:04;0.95;;;0.80;;
16426;SDS011;8322;-33.900;151.170;2023-05-29T05:29:33;0.82;;;0.60;;
16426;SDS011;8322;-33.900;151.170;2023-05-29T05:32:03;0.68;;;0.60;;
16426;SDS011;8322;-33.900;151.170;2023-05-29T05:34:32;2.40;;;0.80;;
16426;SDS011;8322;-33.900;151.170;2023-05-29T05:37:04;2.35;;;1.10;;
16426;SDS011;8322;-33.900;151.170;2023-05-29T05:39:33;1.73;;;0.73;;
16426;SDS011;8322;-33.900;151.170;2023-05-29T05:42:03;1.20;;;0.57;;
16426;SDS011;8322;-33.900;151.170;2023-05-29T05:44:32;2.15;;;0.70;;
16426;SDS011;8322;-33.900;151.170;2023-05-29T05:47:02;0.60;;;0.60;;
16426;SDS011;8322;-33.900;151.170;2023-05-29T05:49:31;0.70;;;0.70;;
16426;SDS011;8322;-33.900;151.170;2023-05-29T05:52:01;0.60;;;0.60;;
16426;SDS011;8322;-33.900;151.170;2023-05-29T05:54:32;0.65;;;0.65;;
16426;SDS011;8322;-33.900;151.170;2023-05-29T05:57:02;0.85;;;0.80;;
16426;SDS011;8322;-33.900;151.170;2023-05-29T05:59:32;1.27;;;0.80;;
16426;SDS011;8322;-33.900;151.170;2023-05-29T06:02:01;1.95;;;0.80;;
16426;SDS011;8322;-33.900;151.170;2023-05-29T06:04:31;2.15;;;0.90;;
16426;SDS011;8322;-33.900;151.170;2023-05-29T06:07:00;1.15;;;0.57;;
16426;SDS011;8322;-33.900;151.170;2023-05-29T06:09:30;0.60;;;0.60;;
16426;SDS011;8322;-33.900;151.170;2023-05-29T06:12:01;3.33;;;1.80;;
16426;SDS011;8322;-33.900;151.170;2023-05-29T06:14:31;0.60;;;0.60;;
16426;SDS011;8322;-33.900;151.170;2023-05-29T06:17:00;1.55;;;1.00;;
16426;SDS011;8322;-33.900;151.170;2023-05-29T06:19:30;1.05;;;0.70;;
16426;SDS011;8322;-33.900;151.170;2023-05-29T06:21:59;2.05;;;0.80;;
16426;SDS011;8322;-33.900;151.170;2023-05-29T06:24:29;2.75;;;0.70;;
16426;SDS011;8322;-33.900;151.170;2023-05-29T06:26:58;3.00;;;1.00;;
16426;SDS011;8322;-33.900;151.170;2023-05-29T06:29:30;1.83;;;0.80;;
16426;SDS011;8322;-33.900;151.170;2023-05-29T06:31:59;0.73;;;0.70;;
16426;SDS011;8322;-33.900;151.170;2023-05-29T06:34:29;3.22;;;0.80;;
16426;SDS011;8322;-33.900;151.170;2023-05-29T06:36:58;2.00;;;0.80;;
16426;SDS011;8322;-33.900;151.170;2023-05-29T06:39:28;1.75;;;0.90;;
16426;SDS011;8322;-33.900;151.170;2023-05-29T06:42:00;1.65;;;0.60;;
16426;SDS011;8322;-33.900;151.170;2023-05-29T06:44:32;2.45;;;0.70;;
16426;SDS011;8322;-33.900;151.170;2023-05-29T06:47:01;1.90;;;0.80;;
16426;SDS011;8322;-33.900;151.170;2023-05-29T06:49:31;2.88;;;0.77;;
16426;SDS011;8322;-33.900;151.170;2023-05-29T06:52:00;2.88;;;1.00;;
16426;SDS011;8322;-33.900;151.170;2023-05-29T06:54:30;2.15;;;0.95;;
16426;SDS011;8322;-33.900;151.170;2023-05-29T06:56:59;2.63;;;0.70;;
16426;SDS011;8322;-33.900;151.170;2023-05-29T06:59:28;2.50;;;0.70;;
16426;SDS011;8322;-33.900;151.170;2023-05-29T07:02:00;1.77;;;0.63;;
16426;SDS011;8322;-33.900;151.170;2023-05-29T07:04:29;2.25;;;0.75;;
16426;SDS011;8322;-33.900;151.170;2023-05-29T07:06:59;3.33;;;0.70;;
16426;SDS011;8322;-33.900;151.170;2023-05-29T07:09:28;3.63;;;0.77;;
16426;SDS011;8322;-33.900;151.170;2023-05-29T07:11:58;34.00;;;15.55;;
16426;SDS011;8322;-33.900;151.170;2023-05-29T07:14:27;1.88;;;0.90;;
16426;SDS011;8322;-33.900;151.170;2023-05-29T07:16:57;4.47;;;1.10;;
16426;SDS011;8322;-33.900;151.170;2023-05-29T07:19:28;2.72;;;0.98;;
16426;SDS011;8322;-33.900;151.170;2023-05-29T07:21:58;2.22;;;0.65;;
16426;SDS011;8322;-33.900;151.170;2023-05-29T07:24:27;1.63;;;0.68;;
16426;SDS011;8322;-33.900;151.170;2023-05-29T07:26:57;1.10;;;0.60;;
16426;SDS011;8322;-33.900;151.170;2023-05-29T07:29:26;1.98;;;0.88;;
16426;SDS011;8322;-33.900;151.170;2023-05-29T07:31:56;1.27;;;0.80;;
16426;SDS011;8322;-33.900;151.170;2023-05-29T07:34:25;1.50;;;1.00;;
16426;SDS011;8322;-33.900;151.170;2023-05-29T07:37:00;1.65;;;0.88;;
16426;SDS011;8322;-33.900;151.170;2023-05-29T07:39:30;1.83;;;1.00;;
16426;SDS011;8322;-33.900;151.170;2023-05-29T07:41:59;2.10;;;1.00;;
16426;SDS011;8322;-33.900;151.170;2023-05-29T07:44:29;3.38;;;0.90;;
16426;SDS011;8322;-33.900;151.170;2023-05-29T07:47:03;2.47;;;0.77;;
16426;SDS011;8322;-33.900;151.170;2023-05-29T07:49:32;2.17;;;0.90;;
16426;SDS011;8322;-33.900;151.170;2023-05-29T07:52:04;3.92;;;0.90;;
16426;SDS011;8322;-33.900;151.170;2023-05-29T07:54:33;4.40;;;1.55;;
16426;SDS011;8322;-33.900;151.170;2023-05-29T07:57:03;2.35;;;1.25;;
16426;SDS011;8322;-33.900;151.170;2023-05-29T07:59:35;1.80;;;1.30;;
16426;SDS011;8322;-33.900;151.170;2023-05-29T08:02:06;1.65;;;1.10;;
16426;SDS011;8322;-33.900;151.170;2023-05-29T08:04:35;1.60;;;1.00;;
16426;SDS011;8322;-33.900;151.170;2023-05-29T08:07:07;1.35;;;0.90;;
16426;SDS011;8322;-33.900;151.170;2023-05-29T08:09:36;1.73;;;0.90;;
16426;SDS011;8322;-33.900;151.170;2023-05-29T08:12:06;1.92;;;1.00;;
16426;SDS011;8322;-33.900;151.170;2023-05-29T08:14:35;3.65;;;1.30;;
16426;SDS011;8322;-33.900;151.170;2023-05-29T08:17:05;5.70;;;1.80;;
16426;SDS011;8322;-33.900;151.170;2023-05-29T08:19:35;3.42;;;1.38;;
16426;SDS011;8322;-33.900;151.170;2023-05-29T08:22:06;3.55;;;1.40;;
16426;SDS011;8322;-33.900;151.170;2023-05-29T08:24:36;4.03;;;1.50;;
16426;SDS011;8322;-33.900;151.170;2023-05-29T08:27:05;3.70;;;1.45;;
16426;SDS011;8322;-33.900;151.170;2023-05-29T08:29:35;2.30;;;1.10;;
16426;SDS011;8322;-33.900;151.170;2023-05-29T08:32:05;2.28;;;1.48;;
16426;SDS011;8322;-33.900;151.170;2023-05-29T08:34:34;3.33;;;1.10;;
16426;SDS011;8322;-33.900;151.170;2023-05-29T08:37:06;2.08;;;1.10;;
16426;SDS011;8322;-33.900;151.170;2023-05-29T08:39:36;3.10;;;1.25;;
16426;SDS011;8322;-33.900;151.170;2023-05-29T08:42:10;2.30;;;0.93;;
16426;SDS011;8322;-33.900;151.170;2023-05-29T08:44:42;2.17;;;1.38;;
16426;SDS011;8322;-33.900;151.170;2023-05-29T08:47:13;1.52;;;1.20;;
16426;SDS011;8322;-33.900;151.170;2023-05-29T08:49:53;2.13;;;1.33;;
16426;SDS011;8322;-33.900;151.170;2023-05-29T08:52:25;1.67;;;1.38;;
16426;SDS011;8322;-33.900;151.170;2023-05-29T08:54:55;3.88;;;1.63;;
16426;SDS011;8322;-33.900;151.170;2023-05-29T08:57:27;4.28;;;1.80;;
16426;SDS011;8322;-33.900;151.170;2023-05-29T08:59:57;2.20;;;1.33;;
16426;SDS011;8322;-33.900;151.170;2023-05-29T09:02:27;2.80;;;1.67;;
16426;SDS011;8322;-33.900;151.170;2023-05-29T09:04:57;2.97;;;1.50;;
16426;SDS011;8322;-33.900;151.170;2023-05-29T09:07:28;5.75;;;2.17;;
16426;SDS011;8322;-33.900;151.170;2023-05-29T09:09:58;9.23;;;3.80;;
16426;SDS011;8322;-33.900;151.170;2023-05-29T09:12:28;12.13;;;4.28;;
16426;SDS011;8322;-33.900;151.170;2023-05-29T09:14:59;6.65;;;2.70;;
16426;SDS011;8322;-33.900;151.170;2023-05-29T09:17:30;4.35;;;2.58;;
16426;SDS011;8322;-33.900;151.170;2023-05-29T09:20:00;6.32;;;2.20;;
16426;SDS011;8322;-33.900;151.170;2023-05-29T09:22:33;3.28;;;1.77;;
16426;SDS011;8322;-33.900;151.170;2023-05-29T09:25:03;7.32;;;4.45;;
16426;SDS011;8322;-33.900;151.170;2023-05-29T09:27:32;10.13;;;6.13;;
16426;SDS011;8322;-33.900;151.170;2023-05-29T09:30:08;15.25;;;8.32;;
16426;SDS011;8322;-33.900;151.170;2023-05-29T09:32:38;10.45;;;5.65;;
16426;SDS011;8322;-33.900;151.170;2023-05-29T09:35:09;7.30;;;4.15;;
16426;SDS011;8322;-33.900;151.170;2023-05-29T09:37:43;5.47;;;3.40;;
16426;SDS011;8322;-33.900;151.170;2023-05-29T09:40:13;4.40;;;2.95;;
16426;SDS011;8322;-33.900;151.170;2023-05-29T09:42:43;4.43;;;2.80;;
16426;SDS011;8322;-33.900;151.170;2023-05-29T09:45:15;4.80;;;2.20;;
16426;SDS011;8322;-33.900;151.170;2023-05-29T09:47:46;4.50;;;2.50;;
16426;SDS011;8322;-33.900;151.170;2023-05-29T09:50:18;3.42;;;1.90;;
16426;SDS011;8322;-33.900;151.170;2023-05-29T09:52:50;3.85;;;2.08;;
16426;SDS011;8322;-33.900;151.170;2023-05-29T09:55:20;4.22;;;1.88;;
16426;SDS011;8322;-33.900;151.170;2023-05-29T09:57:49;4.30;;;2.08;;
16426;SDS011;8322;-33.900;151.170;2023-05-29T10:00:20;3.65;;;2.10;;
16426;SDS011;8322;-33.900;151.170;2023-05-29T10:02:49;3.63;;;2.13;;
16426;SDS011;8322;-33.900;151.170;2023-05-29T10:05:19;3.85;;;2.20;;
16426;SDS011;8322;-33.900;151.170;2023-05-29T10:07:51;5.25;;;2.17;;
16426;SDS011;8322;-33.900;151.170;2023-05-29T10:10:23;2.92;;;1.60;;
16426;SDS011;8322;-33.900;151.170;2023-05-29T10:12:54;3.00;;;2.00;;
16426;SDS011;8322;-33.900;151.170;2023-05-29T10:15:25;4.38;;;2.03;;
16426;SDS011;8322;-33.900;151.170;2023-05-29T10:17:59;3.58;;;1.83;;
16426;SDS011;8322;-33.900;151.170;2023-05-29T10:20:31;12.73;;;3.67;;
16426;SDS011;8322;-33.900;151.170;2023-05-29T10:23:03;16.17;;;4.10;;
16426;SDS011;8322;-33.900;151.170;2023-05-29T10:25:33;15.43;;;4.35;;
16426;SDS011;8322;-33.900;151.170;2023-05-29T10:28:04;59.72;;;10.57;;
16426;SDS011;8322;-33.900;151.170;2023-05-29T10:30:35;43.60;;;9.07;;
16426;SDS011;8322;-33.900;151.170;2023-05-29T10:33:26;28.02;;;6.43;;
16426;SDS011;8322;-33.900;151.170;2023-05-29T10:36:01;27.48;;;6.05;;
16426;SDS011;8322;-33.900;151.170;2023-05-29T10:38:34;17.15;;;4.78;;
16426;SDS011;8322;-33.900;151.170;2023-05-29T10:43:54;25.23;;;5.75;;
16426;SDS011;8322;-33.900;151.170;2023-05-29T10:46:32;13.32;;;4.55;;
16426;SDS011;8322;-33.900;151.170;2023-05-29T10:49:23;24.25;;;5.82;;
16426;SDS011;8322;-33.900;151.170;2023-05-29T10:51:53;18.77;;;4.95;;
16426;SDS011;8322;-33.900;151.170;2023-05-29T10:54:27;9.98;;;3.80;;
16426;SDS011;8322;-33.900;151.170;2023-05-29T10:56:57;44.95;;;11.02;;
16426;SDS011;8322;-33.900;151.170;2023-05-29T10:59:27;26.08;;;7.60;;
16426;SDS011;8322;-33.900;151.170;2023-05-29T11:01:57;20.58;;;5.45;;
16426;SDS011;8322;-33.900;151.170;2023-05-29T11:04:27;13.73;;;4.05;;
16426;SDS011;8322;-33.900;151.170;2023-05-29T11:06:58;6.22;;;2.92;;
16426;SDS011;8322;-33.900;151.170;2023-05-29T11:09:32;5.82;;;2.30;;
16426;SDS011;8322;-33.900;151.170;2023-05-29T11:12:12;8.70;;;2.60;;
16426;SDS011;8322;-33.900;151.170;2023-05-29T11:14:53;8.90;;;3.50;;
16426;SDS011;8322;-33.900;151.170;2023-05-29T11:20:33;6.20;;;2.70;;
16426;SDS011;8322;-33.900;151.170;2023-05-29T11:23:04;8.43;;;2.85;;
16426;SDS011;8322;-33.900;151.170;2023-05-29T11:25:37;25.67;;;6.13;;
16426;SDS011;8322;-33.900;151.170;2023-05-29T11:28:08;40.72;;;7.28;;
16426;SDS011;8322;-33.900;151.170;2023-05-29T11:30:45;47.67;;;9.20;;
16426;SDS011;8322;-33.900;151.170;2023-05-29T11:33:18;34.13;;;8.10;;
16426;SDS011;8322;-33.900;151.170;2023-05-29T11:35:50;27.83;;;6.43;;
16426;SDS011;8322;-33.900;151.170;2023-05-29T11:38:20;13.07;;;3.97;;
16426;SDS011;8322;-33.900;151.170;2023-05-29T11:40:52;20.30;;;4.95;;
16426;SDS011;8322;-33.900;151.170;2023-05-29T11:43:22;12.45;;;4.97;;
16426;SDS011;8322;-33.900;151.170;2023-05-29T11:45:51;19.63;;;4.75;;
16426;SDS011;8322;-33.900;151.170;2023-05-29T11:48:21;12.00;;;3.50;;
16426;SDS011;8322;-33.900;151.170;2023-05-29T11:50:53;18.67;;;4.00;;
16426;SDS011;8322;-33.900;151.170;2023-05-29T11:53:23;13.95;;;4.22;;
16426;SDS011;8322;-33.900;151.170;2023-05-29T11:56:07;13.70;;;4.18;;
16426;SDS011;8322;-33.900;151.170;2023-05-29T11:58:37;19.70;;;4.75;;
16426;SDS011;8322;-33.900;151.170;2023-05-29T12:01:07;9.98;;;3.42;;
16426;SDS011;8322;-33.900;151.170;2023-05-29T12:03:37;22.20;;;4.68;;
16426;SDS011;8322;-33.900;151.170;2023-05-29T12:06:08;17.50;;;3.88;;
16426;SDS011;8322;-33.900;151.170;2023-05-29T12:08:38;11.52;;;3.03;;
16426;SDS011;8322;-33.900;151.170;2023-05-29T12:11:09;14.32;;;3.08;;
16426;SDS011;8322;-33.900;151.170;2023-05-29T12:13:39;11.55;;;3.05;;
16426;SDS011;8322;-33.900;151.170;2023-05-29T12:16:08;10.07;;;2.97;;
16426;SDS011;8322;-33.900;151.170;2023-05-29T12:18:38;10.15;;;3.15;;
16426;SDS011;8322;-33.900;151.170;2023-05-29T12:21:07;12.32;;;2.80;;
16426;SDS011;8322;-33.900;151.170;2023-05-29T12:23:37;8.35;;;2.80;;
16426;SDS011;8322;-33.900;151.170;2023-05-29T12:26:07;8.32;;;2.40;;
16426;SDS011;8322;-33.900;151.170;2023-05-29T12:28:41;5.60;;;2.20;;
16426;SDS011;8322;-33.900;151.170;2023-05-29T12:31:11;8.40;;;3.08;;
16426;SDS011;8322;-33.900;151.170;2023-05-29T12:33:42;6.40;;;3.03;;
16426;SDS011;8322;-33.900;151.170;2023-05-29T12:36:12;5.43;;;2.63;;
16426;SDS011;8322;-33.900;151.170;2023-05-29T12:38:48;7.20;;;2.72;;
16426;SDS011;8322;-33.900;151.170;2023-05-29T12:41:25;5.68;;;2.50;;
16426;SDS011;8322;-33.900;151.170;2023-05-29T12:43:56;7.65;;;2.63;;
16426;SDS011;8322;-33.900;151.170;2023-05-29T12:46:26;6.43;;;2.70;;
16426;SDS011;8322;-33.900;151.170;2023-05-29T12:48:56;6.63;;;2.80;;
16426;SDS011;8322;-33.900;151.170;2023-05-29T12:51:26;5.60;;;2.22;;
16426;SDS011;8322;-33.900;151.170;2023-05-29T12:53:57;4.55;;;2.42;;
16426;SDS011;8322;-33.900;151.170;2023-05-29T12:56:28;4.85;;;2.40;;
16426;SDS011;8322;-33.900;151.170;2023-05-29T12:58:59;8.02;;;2.45;;
16426;SDS011;8322;-33.900;151.170;2023-05-29T13:01:29;3.90;;;2.00;;
16426;SDS011;8322;-33.900;151.170;2023-05-29T13:03:58;7.20;;;2.63;;
16426;SDS011;8322;-33.900;151.170;2023-05-29T13:06:28;7.80;;;3.10;;
16426;SDS011;8322;-33.900;151.170;2023-05-29T13:08:57;5.68;;;2.80;;
16426;SDS011;8322;-33.900;151.170;2023-05-29T13:11:27;3.80;;;2.42;;
16426;SDS011;8322;-33.900;151.170;2023-05-29T13:14:00;7.55;;;2.92;;
16426;SDS011;8322;-33.900;151.170;2023-05-29T13:16:30;9.15;;;3.10;;
16426;SDS011;8322;-33.900;151.170;2023-05-29T13:19:00;8.73;;;2.97;;
16426;SDS011;8322;-33.900;151.170;2023-05-29T13:21:29;5.13;;;2.10;;
16426;SDS011;8322;-33.900;151.170;2023-05-29T13:23:59;5.85;;;2.33;;
16426;SDS011;8322;-33.900;151.170;2023-05-29T13:26:28;5.85;;;2.40;;
16426;SDS011;8322;-33.900;151.170;2023-05-29T13:28:58;7.00;;;2.70;;
16426;SDS011;8322;-33.900;151.170;2023-05-29T13:31:29;3.00;;;1.75;;
16426;SDS011;8322;-33.900;151.170;2023-05-29T13:33:59;2.30;;;1.63;;
16426;SDS011;8322;-33.900;151.170;2023-05-29T13:36:28;3.95;;;1.40;;
16426;SDS011;8322;-33.900;151.170;2023-05-29T13:38:58;2.97;;;1.50;;
16426;SDS011;8322;-33.900;151.170;2023-05-29T13:41:27;4.10;;;1.70;;
16426;SDS011;8322;-33.900;151.170;2023-05-29T13:43:57;5.13;;;1.50;;
16426;SDS011;8322;-33.900;151.170;2023-05-29T13:46:27;4.75;;;1.80;;
16426;SDS011;8322;-33.900;151.170;2023-05-29T13:48:58;3.15;;;1.80;;
16426;SDS011;8322;-33.900;151.170;2023-05-29T13:51:28;4.93;;;3.00;;
16426;SDS011;8322;-33.900;151.170;2023-05-29T13:53:57;6.05;;;3.45;;
16426;SDS011;8322;-33.900;151.170;2023-05-29T13:56:27;4.63;;;2.50;;
16426;SDS011;8322;-33.900;151.170;2023-05-29T13:58:59;4.18;;;1.70;;
16426;SDS011;8322;-33.900;151.170;2023-05-29T14:01:32;2.70;;;1.35;;
16426;SDS011;8322;-33.900;151.170;2023-05-29T14:04:03;1.92;;;1.25;;
16426;SDS011;8322;-33.900;151.170;2023-05-29T14:06:33;2.90;;;1.30;;
16426;SDS011;8322;-33.900;151.170;2023-05-29T14:09:03;3.30;;;1.50;;
16426;SDS011;8322;-33.900;151.170;2023-05-29T14:11:35;2.75;;;1.52;;
16426;SDS011;8322;-33.900;151.170;2023-05-29T14:14:05;1.58;;;1.38;;
16426;SDS011;8322;-33.900;151.170;2023-05-29T14:16:38;3.63;;;1.60;;
16426;SDS011;8322;-33.900;151.170;2023-05-29T14:19:09;4.93;;;1.20;;
16426;SDS011;8322;-33.900;151.170;2023-05-29T14:21:38;21.50;;;9.85;;
16426;SDS011;8322;-33.900;151.170;2023-05-29T14:24:08;27.60;;;14.30;;
16426;SDS011;8322;-33.900;151.170;2023-05-29T14:26:37;41.13;;;21.20;;
16426;SDS011;8322;-33.900;151.170;2023-05-29T14:29:09;39.25;;;26.20;;
16426;SDS011;8322;-33.900;151.170;2023-05-29T14:31:38;10.57;;;7.53;;
16426;SDS011;8322;-33.900;151.170;2023-05-29T14:34:09;16.55;;;9.88;;
16426;SDS011;8322;-33.900;151.170;2023-05-29T14:36:39;14.48;;;8.40;;
16426;SDS011;8322;-33.900;151.170;2023-05-29T14:39:10;12.15;;;7.72;;
16426;SDS011;8322;-33.900;151.170;2023-05-29T14:41:40;36.53;;;19.63;;
16426;SDS011;8322;-33.900;151.170;2023-05-29T14:44:09;10.30;;;6.20;;
16426;SDS011;8322;-33.900;151.170;2023-05-29T14:46:39;10.15;;;4.50;;